sensor_id;sensor_type;location;lat;lon;timestamp;pressure;altitude;pressure_sealevel;temperature;humidity
47556;BME280;33291;46.222;26.460;2022-12-26T00:00:23;97410.28;;;-0.24;91.67
47556;BME280;33291;46.222;26.460;2022-12-26T00:02:49;97412.00;;;-0.24;91.34
47556;BME280;33291;46.222;26.460;2022-12-26T00:05:14;97401.00;;;-0.28;91.51
47556;BME280;33291;46.222;26.460;2022-12-26T00:07:40;97410.31;;;-0.25;92.06
47556;BME280;33291;46.222;26.460;2022-12-26T00:10:06;97399.34;;;-0.29;91.89
47556;BME280;33291;46.222;26.460;2022-12-26T00:12:32;97399.22;;;-0.24;91.87
47556;BME280;33291;46.222;26.460;2022-12-26T00:14:57;97412.72;;;-0.21;91.48
47556;BME280;33291;46.222;26.460;2022-12-26T00:17:22;97417.84;;;-0.21;91.66
47556;BME280;33291;46.222;26.460;2022-12-26T00:19:48;97420.41;;;-0.21;91.45
47556;BME280;33291;46.222;26.460;2022-12-26T00:22:13;97423.19;;;-0.27;91.77
47556;BME280;33291;46.222;26.460;2022-12-26T00:24:40;97423.09;;;-0.24;92.30
47556;BME280;33291;46.222;26.460;2022-12-26T00:27:05;97427.31;;;-0.23;92.02
47556;BME280;33291;46.222;26.460;2022-12-26T00:29:31;97420.53;;;-0.24;92.18
47556;BME280;33291;46.222;26.460;2022-12-26T00:31:56;97416.94;;;-0.18;92.11
47556;BME280;33291;46.222;26.460;2022-12-26T00:34:22;97426.22;;;-0.15;92.01
47556;BME280;33291;46.222;26.460;2022-12-26T00:36:47;97413.72;;;-0.25;91.58
47556;BME280;33291;46.222;26.460;2022-12-26T00:39:12;97414.72;;;-0.29;91.60
47556;BME280;33291;46.222;26.460;2022-12-26T00:41:38;97407.91;;;-0.30;91.45
47556;BME280;33291;46.222;26.460;2022-12-26T00:44:03;97401.13;;;-0.31;91.34
47556;BME280;33291;46.222;26.460;2022-12-26T00:46:29;97398.59;;;-0.32;91.05
47556;BME280;33291;46.222;26.460;2022-12-26T00:48:55;97385.31;;;-0.44;91.08
47556;BME280;33291;46.222;26.460;2022-12-26T00:51:20;97405.56;;;-0.36;90.99
47556;BME280;33291;46.222;26.460;2022-12-26T00:53:46;97405.56;;;-0.36;91.16
47556;BME280;33291;46.222;26.460;2022-12-26T00:56:12;97408.16;;;-0.38;90.88
47556;BME280;33291;46.222;26.460;2022-12-26T00:58:38;97405.69;;;-0.41;91.03
47556;BME280;33291;46.222;26.460;2022-12-26T01:01:10;97405.81;;;-0.44;90.89
47556;BME280;33291;46.222;26.460;2022-12-26T01:03:37;97403.34;;;-0.47;91.34
47556;BME280;33291;46.222;26.460;2022-12-26T01:06:04;97400.88;;;-0.50;91.09
47556;BME280;33291;46.222;26.460;2022-12-26T01:08:29;97388.19;;;-0.53;92.06
47556;BME280;33291;46.222;26.460;2022-12-26T01:10:55;97384.75;;;-0.54;92.09
47556;BME280;33291;46.222;26.460;2022-12-26T01:13:20;97391.66;;;-0.56;91.80
47556;BME280;33291;46.222;26.460;2022-12-26T01:15:51;97378.03;;;-0.56;92.00
47556;BME280;33291;46.222;26.460;2022-12-26T01:18:17;97381.56;;;-0.60;91.85
47556;BME280;33291;46.222;26.460;2022-12-26T01:20:42;97383.31;;;-0.61;92.01
47556;BME280;33291;46.222;26.460;2022-12-26T01:23:08;97381.53;;;-0.59;92.21
47556;BME280;33291;46.222;26.460;2022-12-26T01:25:33;97367.25;;;-0.66;92.09
47556;BME280;33291;46.222;26.460;2022-12-26T01:27:59;97385.66;;;-0.55;92.25
47556;BME280;33291;46.222;26.460;2022-12-26T01:30:24;97382.31;;;-0.57;92.13
47556;BME280;33291;46.222;26.460;2022-12-26T01:32:50;97379.75;;;-0.57;92.45
47556;BME280;33291;46.222;26.460;2022-12-26T01:35:15;97378.81;;;-0.54;92.37
47556;BME280;33291;46.222;26.460;2022-12-26T01:37:41;97382.31;;;-0.57;92.13
47556;BME280;33291;46.222;26.460;2022-12-26T01:40:06;97363.72;;;-0.62;91.97
47556;BME280;33291;46.222;26.460;2022-12-26T01:42:37;97356.31;;;-0.71;92.22
47556;BME280;33291;46.222;26.460;2022-12-26T01:47:48;97379.06;;;-0.62;92.55
47556;BME280;33291;46.222;26.460;2022-12-26T01:52:55;97368.22;;;-0.70;92.34
47556;BME280;33291;46.222;26.460;2022-12-26T01:55:24;97385.25;;;-0.69;92.73
47556;BME280;33291;46.222;26.460;2022-12-26T01:57:57;97376.69;;;-0.68;92.78
47556;BME280;33291;46.222;26.460;2022-12-26T02:00:25;97376.78;;;-0.71;92.78
47556;BME280;33291;46.222;26.460;2022-12-26T02:02:51;97375.75;;;-0.65;92.38
47556;BME280;33291;46.222;26.460;2022-12-26T02:05:37;97375.78;;;-0.67;92.29
47556;BME280;33291;46.222;26.460;2022-12-26T02:08:07;97374.97;;;-0.67;92.27
47556;BME280;33291;46.222;26.460;2022-12-26T02:10:49;97367.44;;;-0.72;91.97
47556;BME280;33291;46.222;26.460;2022-12-26T02:13:16;97370.81;;;-0.72;92.18
47556;BME280;33291;46.222;26.460;2022-12-26T02:15:43;97347.22;;;-0.80;92.43
47556;BME280;33291;46.222;26.460;2022-12-26T02:18:09;97363.94;;;-0.69;92.84
47556;BME280;33291;46.222;26.460;2022-12-26T02:31:36;97363.09;;;-0.70;92.99
47556;BME280;33291;46.222;26.460;2022-12-26T02:34:26;97349.34;;;-0.66;92.60
47556;BME280;33291;46.222;26.460;2022-12-26T02:37:22;97334.75;;;-0.64;92.69
47556;BME280;33291;46.222;26.460;2022-12-26T02:48:45;97345.19;;;-0.70;92.99
47556;BME280;33291;46.222;26.460;2022-12-26T02:51:37;97332.69;;;-0.79;92.95
47556;BME280;33291;46.222;26.460;2022-12-26T02:54:37;97348.75;;;-0.74;92.90
47556;BME280;33291;46.222;26.460;2022-12-26T02:57:40;97333.69;;;-0.83;93.30
47556;BME280;33291;46.222;26.460;2022-12-26T03:00:28;97342.88;;;-0.78;93.54
47556;BME280;33291;46.222;26.460;2022-12-26T03:03:21;97335.25;;;-0.79;93.56
47556;BME280;33291;46.222;26.460;2022-12-26T03:06:21;97341.81;;;-0.70;93.57
47556;BME280;33291;46.222;26.460;2022-12-26T03:09:11;97330.66;;;-0.68;93.21
47556;BME280;33291;46.222;26.460;2022-12-26T03:12:01;97332.19;;;-0.64;92.66
47556;BME280;33291;46.222;26.460;2022-12-26T03:14:51;97338.28;;;-0.66;92.61
47556;BME280;33291;46.222;26.460;2022-12-26T03:17:27;97328.44;;;-0.79;93.03
47556;BME280;33291;46.222;26.460;2022-12-26T03:20:02;97336.84;;;-0.75;93.45
47556;BME280;33291;46.222;26.460;2022-12-26T03:25:07;97319.69;;;-0.73;93.86
47556;BME280;33291;46.222;26.460;2022-12-26T03:27:52;97326.25;;;-0.64;93.63
47556;BME280;33291;46.222;26.460;2022-12-26T03:30:18;97318.63;;;-0.66;93.68
47556;BME280;33291;46.222;26.460;2022-12-26T03:33:02;97306.66;;;-0.65;93.60
47556;BME280;33291;46.222;26.460;2022-12-26T03:35:31;97306.53;;;-0.61;93.71
47556;BME280;33291;46.222;26.460;2022-12-26T03:38:06;97300.66;;;-0.64;93.78
47556;BME280;33291;46.222;26.460;2022-12-26T03:44:15;97319.50;;;-0.67;93.23
47556;BME280;33291;46.222;26.460;2022-12-26T03:47:32;97315.38;;;-0.71;93.37
47556;BME280;33291;46.222;26.460;2022-12-26T03:53:21;97316.94;;;-0.67;93.03
47556;BME280;33291;46.222;26.460;2022-12-26T03:56:13;97321.09;;;-0.63;92.87
47556;BME280;33291;46.222;26.460;2022-12-26T03:59:10;97329.56;;;-0.61;92.50
47556;BME280;33291;46.222;26.460;2022-12-26T04:01:57;97320.94;;;-0.58;92.16
47556;BME280;33291;46.222;26.460;2022-12-26T04:04:48;97331.16;;;-0.58;92.33
47556;BME280;33291;46.222;26.460;2022-12-26T04:07:38;97322.72;;;-0.60;92.42
47556;BME280;33291;46.222;26.460;2022-12-26T04:10:31;97325.19;;;-0.57;92.86
47556;BME280;33291;46.222;26.460;2022-12-26T04:13:23;97311.88;;;-0.68;93.02
47556;BME280;33291;46.222;26.460;2022-12-26T04:16:44;97323.34;;;-0.54;93.10
47556;BME280;33291;46.222;26.460;2022-12-26T04:25:15;97330.09;;;-0.51;92.70
47556;BME280;33291;46.222;26.460;2022-12-26T04:28:01;97327.53;;;-0.51;92.73
47556;BME280;33291;46.222;26.460;2022-12-26T04:30:50;97317.41;;;-0.54;92.92
47556;BME280;33291;46.222;26.460;2022-12-26T04:33:41;97333.38;;;-0.47;93.42
47556;BME280;33291;46.222;26.460;2022-12-26T04:36:32;97330.91;;;-0.50;93.53
47556;BME280;33291;46.222;26.460;2022-12-26T04:39:22;97325.94;;;-0.55;93.68
47556;BME280;33291;46.222;26.460;2022-12-26T04:42:11;97342.25;;;-0.58;94.44
47556;BME280;33291;46.222;26.460;2022-12-26T04:44:56;97324.53;;;-0.64;94.49
47556;BME280;33291;46.222;26.460;2022-12-26T04:47:21;97329.53;;;-0.59;94.65
47556;BME280;33291;46.222;26.460;2022-12-26T04:49:47;97347.97;;;-0.49;94.40
47556;BME280;33291;46.222;26.460;2022-12-26T04:52:31;97335.09;;;-0.48;94.82
47556;BME280;33291;46.222;26.460;2022-12-26T04:55:17;97326.50;;;-0.45;94.98
47556;BME280;33291;46.222;26.460;2022-12-26T04:57:42;97321.28;;;-0.42;95.08
47556;BME280;33291;46.222;26.460;2022-12-26T05:00:09;97331.41;;;-0.39;95.23
47556;BME280;33291;46.222;26.460;2022-12-26T05:02:34;97323.84;;;-0.42;95.66
47556;BME280;33291;46.222;26.460;2022-12-26T05:05:18;97343.31;;;-0.38;95.93
47556;BME280;33291;46.222;26.460;2022-12-26T05:08:02;97349.19;;;-0.34;95.80
47556;BME280;33291;46.222;26.460;2022-12-26T05:10:46;97343.97;;;-0.31;95.89
47556;BME280;33291;46.222;26.460;2022-12-26T05:13:12;97344.00;;;-0.33;95.84
47556;BME280;33291;46.222;26.460;2022-12-26T05:15:37;97347.44;;;-0.34;96.02
47556;BME280;33291;46.222;26.460;2022-12-26T05:18:22;97337.91;;;-0.29;96.05
47556;BME280;33291;46.222;26.460;2022-12-26T05:21:11;97344.84;;;-0.32;96.60
47556;BME280;33291;46.222;26.460;2022-12-26T05:23:56;97349.03;;;-0.30;96.47
47556;BME280;33291;46.222;26.460;2022-12-26T05:26:40;97348.94;;;-0.27;96.43
47556;BME280;33291;46.222;26.460;2022-12-26T05:29:25;97351.53;;;-0.28;96.38
47556;BME280;33291;46.222;26.460;2022-12-26T05:31:50;97359.16;;;-0.27;96.82
47556;BME280;33291;46.222;26.460;2022-12-26T05:34:15;97338.78;;;-0.30;96.61
47556;BME280;33291;46.222;26.460;2022-12-26T05:36:53;97349.59;;;-0.22;96.79
47556;BME280;33291;46.222;26.460;2022-12-26T05:39:21;97331.09;;;-0.30;96.63
47556;BME280;33291;46.222;26.460;2022-12-26T05:41:46;97350.19;;;-0.13;96.75
47556;BME280;33291;46.222;26.460;2022-12-26T05:44:12;97335.16;;;-0.23;96.38
47556;BME280;33291;46.222;26.460;2022-12-26T05:46:38;97343.34;;;-0.13;96.25
47556;BME280;33291;46.222;26.460;2022-12-26T05:49:05;97333.91;;;-0.12;96.29
47556;BME280;33291;46.222;26.460;2022-12-26T05:51:30;97328.13;;;-0.17;96.36
47556;BME280;33291;46.222;26.460;2022-12-26T05:53:56;97326.25;;;-0.12;96.11
47556;BME280;33291;46.222;26.460;2022-12-26T05:56:21;97321.00;;;-0.09;95.67
47556;BME280;33291;46.222;26.460;2022-12-26T05:58:53;97321.00;;;-0.09;95.45
47556;BME280;33291;46.222;26.460;2022-12-26T06:01:20;97331.94;;;-0.04;95.10
47556;BME280;33291;46.222;26.460;2022-12-26T06:03:47;97331.16;;;-0.06;94.85
47556;BME280;33291;46.222;26.460;2022-12-26T06:06:14;97316.91;;;-0.13;94.75
47556;BME280;33291;46.222;26.460;2022-12-26T06:08:39;97321.81;;;-0.07;94.50
47556;BME280;33291;46.222;26.460;2022-12-26T06:11:06;97316.69;;;-0.07;94.87
47556;BME280;33291;46.222;26.460;2022-12-26T06:13:33;97310.88;;;-0.12;95.13
47556;BME280;33291;46.222;26.460;2022-12-26T06:15:58;97297.19;;;-0.11;95.68
47556;BME280;33291;46.222;26.460;2022-12-26T06:18:27;97305.44;;;-0.03;96.13
47556;BME280;33291;46.222;26.460;2022-12-26T06:20:53;97297.59;;;0.02;96.09
47556;BME280;33291;46.222;26.460;2022-12-26T06:23:18;97283.19;;;-0.01;96.68
47556;BME280;33291;46.222;26.460;2022-12-26T06:25:44;97278.16;;;-0.04;97.75
47556;BME280;33291;46.222;26.460;2022-12-26T06:28:09;97278.94;;;-0.02;97.98
47556;BME280;33291;46.222;26.460;2022-12-26T06:30:35;97272.81;;;0.02;97.50
47556;BME280;33291;46.222;26.460;2022-12-26T06:33:00;97271.84;;;0.06;97.39
47556;BME280;33291;46.222;26.460;2022-12-26T06:35:26;97256.47;;;0.06;98.64
47556;BME280;33291;46.222;26.460;2022-12-26T06:37:51;97257.28;;;0.07;99.51
47556;BME280;33291;46.222;26.460;2022-12-26T06:40:17;97267.31;;;0.13;99.28
47556;BME280;33291;46.222;26.460;2022-12-26T06:42:42;97259.63;;;0.13;99.16
47556;BME280;33291;46.222;26.460;2022-12-26T06:45:08;97239.94;;;0.13;98.84
47556;BME280;33291;46.222;26.460;2022-12-26T06:47:34;97260.84;;;0.26;98.51
47556;BME280;33291;46.222;26.460;2022-12-26T06:49:59;97260.78;;;0.28;97.99
47556;BME280;33291;46.222;26.460;2022-12-26T06:52:25;97262.50;;;0.27;97.34
47556;BME280;33291;46.222;26.460;2022-12-26T06:54:50;97266.78;;;0.27;97.24
47556;BME280;33291;46.222;26.460;2022-12-26T06:57:15;97255.91;;;0.22;96.94
47556;BME280;33291;46.222;26.460;2022-12-26T06:59:41;97270.19;;;0.27;96.81
47556;BME280;33291;46.222;26.460;2022-12-26T07:02:09;97261.91;;;0.21;96.52
47556;BME280;33291;46.222;26.460;2022-12-26T07:04:35;97269.38;;;0.27;96.36
47556;BME280;33291;46.222;26.460;2022-12-26T07:07:00;97267.56;;;0.29;96.35
47556;BME280;33291;46.222;26.460;2022-12-26T07:09:25;97270.94;;;0.31;96.04
47556;BME280;33291;46.222;26.460;2022-12-26T07:11:51;97271.75;;;0.31;96.13
47556;BME280;33291;46.222;26.460;2022-12-26T07:14:17;97259.94;;;0.27;95.98
47556;BME280;33291;46.222;26.460;2022-12-26T07:16:43;97270.88;;;0.32;95.75
47556;BME280;33291;46.222;26.460;2022-12-26T07:19:10;97272.50;;;0.35;95.56
47556;BME280;33291;46.222;26.460;2022-12-26T07:21:37;97270.81;;;0.34;95.86
47556;BME280;33291;46.222;26.460;2022-12-26T07:24:03;97259.13;;;0.27;95.77
47556;BME280;33291;46.222;26.460;2022-12-26T07:26:28;97260.78;;;0.28;95.66
47556;BME280;33291;46.222;26.460;2022-12-26T07:28:57;97270.81;;;0.34;95.58
47556;BME280;33291;46.222;26.460;2022-12-26T07:31:24;97270.69;;;0.37;95.72
47556;BME280;33291;46.222;26.460;2022-12-26T07:33:53;97274.78;;;0.43;95.84
47556;BME280;33291;46.222;26.460;2022-12-26T07:36:19;97279.84;;;0.44;95.70
47556;BME280;33291;46.222;26.460;2022-12-26T07:38:45;97268.44;;;0.51;95.86
47556;BME280;33291;46.222;26.460;2022-12-26T07:41:11;97257.53;;;0.46;96.23
47556;BME280;33291;46.222;26.460;2022-12-26T07:43:56;97263.19;;;0.55;96.16
47556;BME280;33291;46.222;26.460;2022-12-26T07:46:21;97282.72;;;0.59;96.28
47556;BME280;33291;46.222;26.460;2022-12-26T07:48:47;97274.06;;;0.61;96.18
47556;BME280;33291;46.222;26.460;2022-12-26T07:51:12;97270.56;;;0.64;96.34
47556;BME280;33291;46.222;26.460;2022-12-26T07:53:38;97283.91;;;0.72;96.06
47556;BME280;33291;46.222;26.460;2022-12-26T07:56:03;97278.72;;;0.74;96.13
47556;BME280;33291;46.222;26.460;2022-12-26T07:58:29;97286.13;;;0.81;95.94
47556;BME280;33291;46.222;26.460;2022-12-26T08:00:54;97281.63;;;0.86;96.13
47556;BME280;33291;46.222;26.460;2022-12-26T08:03:20;97284.09;;;0.89;96.18
47556;BME280;33291;46.222;26.460;2022-12-26T08:05:47;97284.63;;;0.98;96.01
47556;BME280;33291;46.222;26.460;2022-12-26T08:08:13;97293.09;;;1.00;96.87
47556;BME280;33291;46.222;26.460;2022-12-26T08:10:39;97286.97;;;1.04;96.58
47556;BME280;33291;46.222;26.460;2022-12-26T08:13:04;97284.28;;;1.07;96.58
47556;BME280;33291;46.222;26.460;2022-12-26T08:15:30;97278.00;;;1.14;96.60
47556;BME280;33291;46.222;26.460;2022-12-26T08:17:55;97277.88;;;1.17;96.40
47556;BME280;33291;46.222;26.460;2022-12-26T08:20:21;97283.72;;;1.21;96.29
47556;BME280;33291;46.222;26.460;2022-12-26T08:22:46;97275.81;;;1.26;96.45
47556;BME280;33291;46.222;26.460;2022-12-26T08:25:11;97268.78;;;1.31;96.58
47556;BME280;33291;46.222;26.460;2022-12-26T08:27:37;97256.72;;;1.33;96.83
47556;BME280;33291;46.222;26.460;2022-12-26T08:30:03;97256.47;;;1.39;97.73
47556;BME280;33291;46.222;26.460;2022-12-26T08:32:29;97237.75;;;1.37;97.36
47556;BME280;33291;46.222;26.460;2022-12-26T08:34:55;97240.53;;;1.51;97.06
47556;BME280;33291;46.222;26.460;2022-12-26T08:37:21;97241.22;;;1.56;97.16
47556;BME280;33291;46.222;26.460;2022-12-26T08:39:49;97238.50;;;1.59;98.39
47556;BME280;33291;46.222;26.460;2022-12-26T08:42:17;97228.03;;;1.64;98.09
47556;BME280;33291;46.222;26.460;2022-12-26T08:44:43;97211.72;;;1.65;99.20
47556;BME280;33291;46.222;26.460;2022-12-26T08:47:08;97195.47;;;1.65;98.71
47556;BME280;33291;46.222;26.460;2022-12-26T08:49:34;97207.03;;;1.75;98.83
47556;BME280;33291;46.222;26.460;2022-12-26T08:51:59;97204.19;;;1.81;98.94
47556;BME280;33291;46.222;26.460;2022-12-26T08:54:25;97195.38;;;1.87;98.48
47556;BME280;33291;46.222;26.460;2022-12-26T08:56:50;97194.25;;;1.92;98.48
47556;BME280;33291;46.222;26.460;2022-12-26T08:59:16;97188.84;;;1.99;98.38
47556;BME280;33291;46.222;26.460;2022-12-26T09:01:41;97172.47;;;2.01;99.12
47556;BME280;33291;46.222;26.460;2022-12-26T09:04:07;97173.00;;;2.08;99.60
47556;BME280;33291;46.222;26.460;2022-12-26T09:06:34;97176.34;;;2.10;99.79
47556;BME280;33291;46.222;26.460;2022-12-26T09:09:00;97158.16;;;2.15;99.88
47556;BME280;33291;46.222;26.460;2022-12-26T09:11:26;97146.91;;;2.17;99.32
47556;BME280;33291;46.222;26.460;2022-12-26T09:13:53;97136.34;;;2.23;99.34
47556;BME280;33291;46.222;26.460;2022-12-26T09:16:21;97118.28;;;2.25;99.83
47556;BME280;33291;46.222;26.460;2022-12-26T09:18:51;97116.00;;;2.36;100.00
47556;BME280;33291;46.222;26.460;2022-12-26T09:21:17;97117.47;;;2.42;100.00
47556;BME280;33291;46.222;26.460;2022-12-26T09:23:43;97108.75;;;2.44;100.00
47556;BME280;33291;46.222;26.460;2022-12-26T09:26:10;97102.19;;;2.56;99.86
47556;BME280;33291;46.222;26.460;2022-12-26T09:28:36;97102.03;;;2.59;99.21
47556;BME280;33291;46.222;26.460;2022-12-26T09:31:04;97086.47;;;2.62;99.13
47556;BME280;33291;46.222;26.460;2022-12-26T09:33:31;97092.66;;;2.76;99.26
47556;BME280;33291;46.222;26.460;2022-12-26T09:35:58;97087.16;;;2.83;98.69
47556;BME280;33291;46.222;26.460;2022-12-26T09:38:24;97079.34;;;2.85;98.37
47556;BME280;33291;46.222;26.460;2022-12-26T09:46:23;97075.03;;;3.03;97.18
47556;BME280;33291;46.222;26.460;2022-12-26T09:48:56;97073.88;;;3.09;97.04
47556;BME280;33291;46.222;26.460;2022-12-26T09:51:25;97088.78;;;3.19;97.37
47556;BME280;33291;46.222;26.460;2022-12-26T09:53:51;97087.03;;;3.20;97.09
47556;BME280;33291;46.222;26.460;2022-12-26T09:56:20;97092.72;;;3.27;96.78
47556;BME280;33291;46.222;26.460;2022-12-26T09:58:50;97095.78;;;3.33;96.85
47556;BME280;33291;46.222;26.460;2022-12-26T10:01:20;97095.53;;;3.38;96.84
47556;BME280;33291;46.222;26.460;2022-12-26T10:06:33;97110.53;;;3.47;96.36
47556;BME280;33291;46.222;26.460;2022-12-26T10:12:34;97102.22;;;3.58;96.03
47556;BME280;33291;46.222;26.460;2022-12-26T10:20:57;97094.28;;;3.79;95.76
47556;BME280;33291;46.222;26.460;2022-12-26T10:26:38;97095.94;;;3.96;95.40
47556;BME280;33291;46.222;26.460;2022-12-26T10:31:41;97083.31;;;4.07;95.19
47556;BME280;33291;46.222;26.460;2022-12-26T10:36:53;97069.84;;;4.18;95.19
47556;BME280;33291;46.222;26.460;2022-12-26T10:42:02;97072.28;;;4.35;95.16
47556;BME280;33291;46.222;26.460;2022-12-26T10:44:33;97067.28;;;4.48;94.36
47556;BME280;33291;46.222;26.460;2022-12-26T10:47:18;97064.28;;;4.56;94.29
47556;BME280;33291;46.222;26.460;2022-12-26T10:49:47;97064.91;;;4.59;93.78
47556;BME280;33291;46.222;26.460;2022-12-26T10:52:15;97046.38;;;4.53;93.45
47556;BME280;33291;46.222;26.460;2022-12-26T10:54:43;97045.94;;;4.60;93.35
47556;BME280;33291;46.222;26.460;2022-12-26T10:57:10;97065.88;;;4.73;93.21
47556;BME280;33291;46.222;26.460;2022-12-26T10:59:50;97069.84;;;4.78;92.71
47556;BME280;33291;46.222;26.460;2022-12-26T11:02:30;97077.97;;;4.87;92.15
47556;BME280;33291;46.222;26.460;2022-12-26T11:07:33;97058.81;;;4.91;91.57
47556;BME280;33291;46.222;26.460;2022-12-26T11:10:01;97060.66;;;5.03;91.46
47556;BME280;33291;46.222;26.460;2022-12-26T11:12:39;97039.09;;;5.04;91.46
47556;BME280;33291;46.222;26.460;2022-12-26T11:17:44;97057.16;;;5.19;90.69
47556;BME280;33291;46.222;26.460;2022-12-26T11:22:40;97046.09;;;5.31;90.15
47556;BME280;33291;46.222;26.460;2022-12-26T11:27:39;97032.81;;;5.37;89.57
47556;BME280;33291;46.222;26.460;2022-12-26T11:30:19;97024.50;;;5.46;89.11
47556;BME280;33291;46.222;26.460;2022-12-26T11:33:00;97022.56;;;5.50;88.88
47556;BME280;33291;46.222;26.460;2022-12-26T11:35:28;97018.59;;;5.59;88.41
47556;BME280;33291;46.222;26.460;2022-12-26T11:38:06;97020.94;;;5.76;86.38
47556;BME280;33291;46.222;26.460;2022-12-26T11:40:38;97007.31;;;5.74;85.23
47556;BME280;33291;46.222;26.460;2022-12-26T11:43:25;97008.75;;;5.78;85.34
47556;BME280;33291;46.222;26.460;2022-12-26T11:45:51;97004.66;;;5.88;84.45
47556;BME280;33291;46.222;26.460;2022-12-26T11:48:24;97005.41;;;6.18;82.75
47556;BME280;33291;46.222;26.460;2022-12-26T11:50:52;97002.16;;;6.29;81.88
47556;BME280;33291;46.222;26.460;2022-12-26T11:53:19;96989.22;;;6.29;81.74
47556;BME280;33291;46.222;26.460;2022-12-26T11:55:58;96988.31;;;6.43;80.68
47556;BME280;33291;46.222;26.460;2022-12-26T11:58:27;96994.81;;;6.48;80.90
47556;BME280;33291;46.222;26.460;2022-12-26T12:03:40;96997.03;;;6.54;79.86
47556;BME280;33291;46.222;26.460;2022-12-26T12:06:43;97002.41;;;6.51;79.69
47556;BME280;33291;46.222;26.460;2022-12-26T12:12:06;96977.97;;;6.43;79.54
47556;BME280;33291;46.222;26.460;2022-12-26T12:17:32;96993.44;;;6.30;79.33
47556;BME280;33291;46.222;26.460;2022-12-26T12:20:18;96994.59;;;6.26;80.03
47556;BME280;33291;46.222;26.460;2022-12-26T12:25:38;96978.91;;;6.14;79.98
47556;BME280;33291;46.222;26.460;2022-12-26T12:31:24;96980.03;;;6.10;79.87
47556;BME280;33291;46.222;26.460;2022-12-26T12:39:11;96970.28;;;6.01;80.28
47556;BME280;33291;46.222;26.460;2022-12-26T12:42:16;96981.38;;;6.03;80.31
47556;BME280;33291;46.222;26.460;2022-12-26T12:45:19;96990.88;;;6.02;80.58
47556;BME280;33291;46.222;26.460;2022-12-26T12:56:11;96967.31;;;6.07;80.57
47556;BME280;33291;46.222;26.460;2022-12-26T12:58:57;96981.41;;;6.16;79.95
47556;BME280;33291;46.222;26.460;2022-12-26T13:01:41;96989.88;;;6.18;80.15
47556;BME280;33291;46.222;26.460;2022-12-26T13:04:12;96989.88;;;6.18;80.32
47556;BME280;33291;46.222;26.460;2022-12-26T13:06:48;96983.28;;;6.14;80.20
47556;BME280;33291;46.222;26.460;2022-12-26T13:11:47;97004.97;;;6.11;79.89
47556;BME280;33291;46.222;26.460;2022-12-26T13:14:19;96996.50;;;6.09;80.37
47556;BME280;33291;46.222;26.460;2022-12-26T13:16:51;96983.03;;;6.04;80.36
47556;BME280;33291;46.222;26.460;2022-12-26T13:19:28;96994.13;;;6.06;80.69
47556;BME280;33291;46.222;26.460;2022-12-26T13:22:01;96971.91;;;5.89;80.71
47556;BME280;33291;46.222;26.460;2022-12-26T13:24:39;96986.47;;;6.04;80.18
47556;BME280;33291;46.222;26.460;2022-12-26T13:27:27;96963.28;;;6.03;79.88
47556;BME280;33291;46.222;26.460;2022-12-26T13:29:55;96975.63;;;6.12;79.79
47556;BME280;33291;46.222;26.460;2022-12-26T13:32:24;96973.53;;;6.17;79.32
47556;BME280;33291;46.222;26.460;2022-12-26T13:34:52;96968.56;;;6.14;78.84
47556;BME280;33291;46.222;26.460;2022-12-26T13:42:50;96967.09;;;6.10;79.29
47556;BME280;33291;46.222;26.460;2022-12-26T13:50:53;96947.22;;;5.98;80.08
47556;BME280;33291;46.222;26.460;2022-12-26T13:58:56;96951.38;;;6.00;80.44
47556;BME280;33291;46.222;26.460;2022-12-26T14:06:53;96967.16;;;5.96;80.88
47556;BME280;33291;46.222;26.460;2022-12-26T14:09:47;96959.50;;;5.94;80.97
47556;BME280;33291;46.222;26.460;2022-12-26T14:17:57;96937.22;;;5.79;81.45
47556;BME280;33291;46.222;26.460;2022-12-26T14:20:43;96946.69;;;5.78;81.59
47556;BME280;33291;46.222;26.460;2022-12-26T14:31:25;96966.34;;;5.68;82.43
47556;BME280;33291;46.222;26.460;2022-12-26T14:34:00;96946.47;;;5.68;82.39
47556;BME280;33291;46.222;26.460;2022-12-26T14:36:45;96948.97;;;5.70;82.25
47556;BME280;33291;46.222;26.460;2022-12-26T14:39:55;96947.19;;;5.70;82.24
47556;BME280;33291;46.222;26.460;2022-12-26T14:42:25;96935.13;;;5.71;81.53
47556;BME280;33291;46.222;26.460;2022-12-26T14:47:52;96936.66;;;5.74;80.20
47556;BME280;33291;46.222;26.460;2022-12-26T14:50:35;96937.94;;;5.81;79.40
47556;BME280;33291;46.222;26.460;2022-12-26T14:55:56;96933.97;;;5.75;80.49
47556;BME280;33291;46.222;26.460;2022-12-26T15:00:51;96954.63;;;5.90;79.93
47556;BME280;33291;46.222;26.460;2022-12-26T15:03:30;96955.03;;;5.96;79.67
47556;BME280;33291;46.222;26.460;2022-12-26T15:17:04;96967.41;;;6.58;77.84
47556;BME280;33291;46.222;26.460;2022-12-26T15:36:48;96964.03;;;6.18;80.01
47556;BME280;33291;46.222;26.460;2022-12-26T15:39:33;96950.34;;;6.03;80.71
47556;BME280;33291;46.222;26.460;2022-12-26T15:48:06;96964.56;;;5.96;83.80
47556;BME280;33291;46.222;26.460;2022-12-26T15:50:50;96961.47;;;5.91;84.41
47556;BME280;33291;46.222;26.460;2022-12-26T16:01:48;96973.41;;;5.79;84.32
47556;BME280;33291;46.222;26.460;2022-12-26T16:09:40;96974.81;;;5.70;84.92
47556;BME280;33291;46.222;26.460;2022-12-26T16:14:45;96969.41;;;5.60;84.74
47556;BME280;33291;46.222;26.460;2022-12-26T16:19:41;96976.16;;;5.48;85.66
47556;BME280;33291;46.222;26.460;2022-12-26T16:25:29;96971.38;;;5.42;86.24
47556;BME280;33291;46.222;26.460;2022-12-26T16:27:56;96973.00;;;5.43;85.45
47556;BME280;33291;46.222;26.460;2022-12-26T16:30:35;96966.22;;;5.42;85.51
47556;BME280;33291;46.222;26.460;2022-12-26T16:33:01;96955.78;;;5.29;85.96
47556;BME280;33291;46.222;26.460;2022-12-26T16:35:38;96964.28;;;5.31;85.76
47556;BME280;33291;46.222;26.460;2022-12-26T16:38:07;96964.81;;;5.22;85.96
47556;BME280;33291;46.222;26.460;2022-12-26T16:40:45;96961.16;;;5.26;85.97
47556;BME280;33291;46.222;26.460;2022-12-26T16:45:44;96964.72;;;5.24;86.33
47556;BME280;33291;46.222;26.460;2022-12-26T16:48:13;96964.38;;;5.15;86.64
47556;BME280;33291;46.222;26.460;2022-12-26T16:50:56;96949.00;;;5.14;86.90
47556;BME280;33291;46.222;26.460;2022-12-26T16:56:28;96954.44;;;5.09;86.70